• Join FlightAware (Why Join?)
  • Login
  • US Flag 
12:06AM EDT


 

Airport Tracker/Info


-or-


 

Live Flight TrackerFlight Track Log ✈ N779NC ✈ 29-Jun-2013 ✈ KATL - KSAV

Flight Track Log - Related Links

Times and Time Zones

All times are in EDT time to prevent confusion due to time zone crossing. See the N779NC flight status page for this flight to view local times or setup timezone preferences in your user account.

Time Position Orientation Groundspeed Altitude Reporting Facility
EDT Latitude Longitude Course Direction KTS MPH feet Rate Location/Type
02:10PM 33.6139 -84.5128 128° Southeast 410 472 3,400  Level Atlanta Center
02:11PM 33.5717 -84.5847 235° Southwest 344 396 5,400 2,040 Climbing Atlanta Center
02:12PM 33.3412 -84.2990 160° South  Level FlightAware Approximate
02:12PM 33.5008 -84.5844 180° South 286 329 7,500  Level Atlanta Center
02:13PM 33.2355 -84.2614 163° South  Level FlightAware Approximate
02:13PM 33.4342 -84.5342 148° Southeast 296 341 10,100  Level Atlanta Center
02:14PM 33.1352 -84.2249 163° South  Level FlightAware Approximate
02:14PM 33.3739 -84.4592 134° Southeast 296 341 11,800  Level Atlanta Center
02:15PM 33.0461 -84.1690 128° Southeast  Level FlightAware Approximate
02:15PM 33.3117 -84.3794 133° Southeast 316 364 13,600  Level Atlanta Center
02:16PM 32.9809 -84.0711 128° Southeast  Level FlightAware Approximate
02:16PM 33.2492 -84.2922 131° Southeast 339 390 15,900  Level Atlanta Center
02:17PM 33.1908 -84.2025 128° Southeast 346 398 16,900 1,440 Climbing Atlanta Center
02:18PM 33.1325 -84.1083 126° Southeast 352 405 18,800 1,680 Climbing Atlanta Center
02:19PM 33.0700 -84.0117 128° Southeast 365 420 20,300 1,080 Climbing Atlanta Center
02:20PM 32.9928 -83.9250 137° Southeast 370 426 21,000 600 Climbing Atlanta Center
02:21PM 32.9028 -83.8483 144° Southeast 379 436 21,600 600 Climbing Atlanta Center
02:22PM 32.8025 -83.7669 146° Southeast 411 473 22,200 600 Climbing Atlanta Center
02:23PM 32.7042 -83.6783 143° Southeast 433 498 22,800 360 Climbing Atlanta Center
02:24PM 32.6369 -83.5431 121° Southeast 440 506 23,000 60 Climbing Atlanta Center
02:25PM 32.5819 -83.4028 115° Southeast 458 527 23,000  Level Atlanta Center
02:26PM 32.5581 -83.2478 100° East 458 527 23,000  Level Atlanta Center
02:27PM 32.5467 -83.0925 95° East 463 533 23,000  Level Atlanta Center
02:28PM 32.5450 -82.9178 91° East 468 539 23,000  Level Atlanta Center
02:29PM 32.5519 -82.7647 87° East 468 539 23,000 -900 Level Atlanta Center
02:31PM 32.4789 -82.4667 106° East 472 543 20,200 -2,040 Descending Jacksonville Center
02:32PM 32.4408 -82.3339 109° East 448 516 16,700 -3,180 Descending Jacksonville Center
02:33PM 32.4069 -82.2061 107° East 414 476 13,900 -2,580 Descending Jacksonville Center
02:34PM 32.3706 -82.0733 108° East 389 448 11,600 -1,500 Descending Jacksonville Center
02:35PM 32.3425 -81.9581 106° East 365 420 10,900 -660 Descending Jacksonville Center
02:36PM 32.3231 -81.8575 103° East 354 407 10,300 -480 Descending Jacksonville Center
02:37PM 32.3094 -81.7250 97° East 360 414 10,000 -240 Descending Jacksonville Center
02:38PM 32.3042 -81.6217 93° East 360 414 9,900 -720 Descending Jacksonville Center
02:39PM 32.2947 -81.5039 95° East 336 387 8,600 -1,380 Descending Jacksonville Center
02:40PM 32.2872 -81.4083 95° East 307 353 7,200 -1,800 Descending Jacksonville Center
02:41PM 32.2736 -81.3200 100° East 301 346 5,100 -1,920 Descending Jacksonville Center
02:42PM 32.2517 -81.2222 105° East 282 325 3,400 -1,740 Descending Jacksonville Center